Pelican of London — MWAQ — position and weather

sailwx.info

Track history (hours):
 
Tides and Currents Weather Stations Pressure Air Temp Water Temp Dewpoint Dewpoint Depression Visibility Wind Speed Wind Dir Waves Ship Positions

Pelican of London

Ship's website: http://www.adventureundersail.com/

Last reported at 2017-Jun-26 16:24 UTC. Time now 2017-Jun-29 01:50 UTC.
Position N 53°35' W 003°43'.

Length 35 m; draft 4 m.

Type: Sailing vessel. MMSI: 235057366.

Date/timePositionNaut miles runAvg speedWind from/ knotsBaromVisibWave heightAir tempDewpointWater temp
2017-Jun-26 16:24N 53°35' W 003°43'4 9.8
2017-Jun-26 16:00N 53°35' W 003°36'5 9.7
2017-Jun-26 15:30N 53°35' W 003°28'5 9.2
2017-Jun-26 15:00N 53°33' W 003°21'9 8.7
2017-Jun-26 14:00N 53°31' W 003°07'4 7.1
2017-Jun-26 13:30N 53°28' W 003°03'3 6.3
2017-Jun-26 13:00N 53°25' W 003°01'2 3.1
2017-Jun-26 12:30N 53°24' W 002°60'0 0.0
2017-Jun-26 12:00N 53°24' W 002°60'0 0.0
2017-Jun-26 11:30N 53°24' W 002°60'0 0.0
2017-Jun-26 11:00N 53°24' W 002°60'0 0.0
2017-Jun-26 10:30N 53°24' W 002°60'0 0.0
2017-Jun-26 10:00N 53°24' W 002°60'0 0.0
2017-Jun-26 09:30N 53°24' W 002°60'0 0.0
2017-Jun-26 09:00N 53°24' W 002°60'0 0.0
2017-Jun-26 08:30N 53°24' W 002°60'0 0.0
2017-Jun-26 08:00N 53°24' W 002°60'0 0.0
2017-Jun-26 07:30N 53°24' W 002°60'0 0.0
2017-Jun-26 07:00N 53°24' W 002°60'0 0.0
2017-Jun-26 06:30N 53°24' W 002°60'0 0.0
2017-Jun-26 06:00N 53°24' W 002°60'0 0.0
2017-Jun-26 05:30N 53°24' W 002°60'0 0.0
2017-Jun-26 05:00N 53°24' W 002°60'0 0.0
2017-Jun-26 04:30N 53°24' W 002°60'0 0.0
2017-Jun-26 04:00N 53°24' W 002°60'0 0.0
2017-Jun-26 03:30N 53°24' W 002°60'0 0.0
2017-Jun-26 03:00N 53°24' W 002°60'0 0.0
2017-Jun-26 02:30N 53°24' W 002°60'0 0.0
2017-Jun-26 02:00N 53°24' W 002°60'0 0.0
2017-Jun-26 01:30N 53°24' W 002°60'0 0.0
2017-Jun-26 01:00N 53°24' W 002°60'0 0.0
2017-Jun-26 00:30N 53°24' W 002°60'0 0.0
2017-Jun-26 00:00N 53°24' W 002°60'0 0.0
2017-Jun-25 23:30N 53°24' W 002°60'0 0.0
2017-Jun-25 23:00N 53°24' W 002°60'0 0.0
2017-Jun-25 22:30N 53°24' W 002°60'0 0.0
2017-Jun-25 22:00N 53°24' W 002°60'0 0.0
2017-Jun-25 21:30N 53°24' W 002°60'0 0.0
2017-Jun-25 21:00N 53°24' W 002°60'0 0.0
2017-Jun-25 20:30N 53°24' W 002°60'0 0.0
2017-Jun-25 20:00N 53°24' W 002°60'0 0.0
2017-Jun-25 19:30N 53°24' W 002°60'0 0.0
2017-Jun-25 19:00N 53°24' W 002°60'0 0.0
2017-Jun-25 18:30N 53°24' W 002°60'0 0.0
2017-Jun-25 18:00N 53°24' W 002°60'0 0.0
2017-Jun-25 17:30N 53°24' W 002°60'0 0.0
2017-Jun-25 17:00N 53°24' W 002°60'0 0.0
2017-Jun-25 16:30N 53°24' W 002°60'0 0.0
2017-Jun-25 16:00N 53°24' W 002°60'0 0.0
2017-Jun-25 15:30N 53°24' W 002°60'0 0.0
2017-Jun-25 15:00N 53°24' W 002°60'0 0.0
2017-Jun-25 14:30N 53°24' W 002°60'0 0.0
2017-Jun-25 13:30N 53°24' W 002°60'0 0.0
2017-Jun-25 13:00N 53°24' W 002°60'0 0.0
2017-Jun-25 12:30N 53°24' W 002°60'0 0.0
2017-Jun-25 12:00N 53°24' W 002°60'0 0.0
2017-Jun-25 11:30N 53°24' W 002°60'0 0.0
2017-Jun-25 11:00N 53°24' W 002°60'0 0.0
2017-Jun-25 10:30N 53°24' W 002°60'0 0.0
2017-Jun-25 10:00N 53°24' W 002°60'0 0.0
2017-Jun-25 09:30N 53°24' W 002°60'0 0.0
2017-Jun-25 09:00N 53°24' W 002°60'0 0.0
2017-Jun-25 08:30N 53°24' W 002°60'0 0.0
2017-Jun-25 08:00N 53°24' W 002°60'0 0.0
2017-Jun-25 07:30N 53°24' W 002°60'0 0.0
2017-Jun-25 07:00N 53°24' W 002°60'0 0.0
2017-Jun-25 06:30N 53°24' W 002°60'0 0.0
2017-Jun-25 06:00N 53°24' W 002°60'0 0.0
2017-Jun-25 05:30N 53°24' W 002°60'0 0.0
2017-Jun-25 05:00N 53°24' W 002°60'0 0.0
2017-Jun-25 04:30N 53°24' W 002°60'0 0.0
2017-Jun-25 04:00N 53°24' W 002°60'0 0.0
2017-Jun-25 03:30N 53°24' W 002°60'0 0.0
2017-Jun-25 03:00N 53°24' W 002°60'0 0.0
2017-Jun-25 02:30N 53°24' W 002°60'0 0.0
2017-Jun-25 02:00N 53°24' W 002°60'0 0.0
2017-Jun-25 01:30N 53°24' W 002°60'0 0.0
2017-Jun-25 01:00N 53°24' W 002°60'0 0.0
2017-Jun-25 00:30N 53°24' W 002°60'0 0.0
2017-Jun-25 00:00N 53°24' W 002°60'0 0.0
2017-Jun-24 23:30N 53°24' W 002°60'0 0.0
2017-Jun-24 23:00N 53°24' W 002°60'0 0.0
2017-Jun-24 22:30N 53°24' W 002°60'0 0.0
2017-Jun-24 22:00N 53°24' W 002°60'0 0.0
2017-Jun-24 21:30N 53°24' W 002°60'0 0.0
2017-Jun-24 21:00N 53°24' W 002°60'0 0.0
2017-Jun-24 20:30N 53°24' W 002°60'0 0.0
2017-Jun-24 20:00N 53°24' W 002°60'0 0.0
2017-Jun-24 19:30N 53°24' W 002°60'0 0.0
2017-Jun-24 19:00N 53°24' W 002°60'0 0.0
2017-Jun-24 18:30N 53°24' W 002°60'0 0.0
2017-Jun-24 18:00N 53°24' W 002°60'0 0.0
2017-Jun-24 17:30N 53°24' W 002°60'0 0.0
2017-Jun-24 17:00N 53°24' W 002°60'0 0.0
2017-Jun-24 16:30N 53°24' W 002°60'0 0.0
2017-Jun-24 16:00N 53°24' W 002°60'0 0.0
2017-Jun-24 15:30N 53°24' W 002°60'0 0.0
2017-Jun-24 15:00N 53°24' W 002°60'0 0.0
2017-Jun-24 14:00N 53°24' W 002°60'0 0.0
2017-Jun-24 13:30N 53°24' W 002°60'0 0.0
2017-Jun-24 13:00N 53°24' W 002°60'0 0.0
2017-Jun-24 12:30N 53°24' W 002°60'0 0.0
2017-Jun-24 12:00N 53°24' W 002°60'0 0.0
2017-Jun-24 11:30N 53°24' W 002°60'0 0.0
2017-Jun-24 11:00N 53°24' W 002°60'0 0.0
2017-Jun-24 10:30N 53°24' W 002°60'0 0.0
2017-Jun-24 10:00N 53°24' W 002°60'0 0.0
2017-Jun-24 09:30N 53°24' W 002°60'0 0.0
2017-Jun-24 09:00N 53°24' W 002°60'0 0.0
2017-Jun-24 08:30N 53°24' W 002°60'0 0.0
2017-Jun-24 08:00N 53°24' W 002°60'0 0.0
2017-Jun-24 07:30N 53°24' W 002°60'0 0.0
2017-Jun-24 07:00N 53°24' W 002°60'0 0.0
2017-Jun-24 06:30N 53°24' W 002°60'0 0.0
2017-Jun-24 06:00N 53°24' W 002°60'0 0.0
2017-Jun-24 05:30N 53°24' W 002°60'0 0.0
2017-Jun-24 05:00N 53°24' W 002°60'0 0.0
2017-Jun-24 04:30N 53°24' W 002°60'0 0.0
2017-Jun-24 04:00N 53°24' W 002°60'0 0.0
2017-Jun-24 03:30N 53°24' W 002°60'0 0.0
2017-Jun-24 03:00N 53°24' W 002°60'0 0.0
2017-Jun-24 02:30N 53°24' W 002°60'0 0.0
2017-Jun-24 02:00N 53°24' W 002°60'0 0.0
2017-Jun-24 01:30N 53°24' W 002°60'0 0.0
2017-Jun-24 01:00N 53°24' W 002°60'0 0.0
2017-Jun-24 00:30N 53°24' W 002°60'0 0.0
2017-Jun-24 00:00N 53°24' W 002°60'0 0.0
2017-Jun-23 23:30N 53°24' W 002°60'0 0.0
2017-Jun-23 23:00N 53°24' W 002°60'0 0.0
2017-Jun-23 22:30N 53°24' W 002°60'0 0.0
2017-Jun-23 22:00N 53°24' W 002°60'0 0.0
2017-Jun-23 21:30N 53°24' W 002°60'0 0.0
2017-Jun-23 21:00N 53°24' W 002°60'0 0.0
2017-Jun-23 20:30N 53°24' W 002°60'0 0.0
2017-Jun-23 20:00N 53°24' W 002°60'0 0.0
2017-Jun-23 19:30N 53°24' W 002°60'0 0.0
2017-Jun-23 19:00N 53°24' W 002°60'0 0.0
2017-Jun-23 18:30N 53°24' W 002°60'0 0.0
2017-Jun-23 18:00N 53°24' W 002°60'0 0.0
2017-Jun-23 17:30N 53°24' W 002°60'0 0.0
2017-Jun-23 17:00N 53°24' W 002°60'0 0.0
2017-Jun-23 16:30N 53°24' W 002°60'0 0.0
2017-Jun-23 16:00N 53°24' W 002°60'0 0.0
2017-Jun-23 15:30N 53°24' W 002°60'0 0.0
2017-Jun-23 15:00N 53°24' W 002°60'0 0.0
2017-Jun-23 14:00N 53°24' W 002°60'0 0.0
2017-Jun-23 13:30N 53°24' W 002°60'0 0.0
2017-Jun-23 13:00N 53°24' W 002°60'0 0.0
2017-Jun-23 12:30N 53°24' W 002°60'0 0.0
2017-Jun-23 12:00N 53°24' W 002°60'0 0.0
2017-Jun-23 11:30N 53°24' W 002°60'0 0.0
2017-Jun-23 11:00N 53°24' W 002°60'0 0.0
2017-Jun-23 10:30N 53°24' W 002°60'0 0.0
2017-Jun-23 10:00N 53°24' W 002°60'0 0.0
2017-Jun-23 09:30N 53°24' W 002°60'0 0.0
2017-Jun-23 09:00N 53°24' W 002°60'0 0.0
2017-Jun-23 08:30N 53°24' W 002°60'0 0.0
2017-Jun-23 08:00N 53°24' W 002°60'0 0.0
2017-Jun-23 07:30N 53°24' W 002°60'0 0.0
2017-Jun-23 07:00N 53°24' W 002°60'0 0.0
2017-Jun-23 06:30N 53°24' W 002°60'0 0.0
2017-Jun-23 06:00N 53°24' W 002°60'0 0.0
2017-Jun-23 05:30N 53°24' W 002°60'0 0.0
2017-Jun-23 05:00N 53°24' W 002°60'0 0.0
2017-Jun-23 04:30N 53°24' W 002°60'0 0.0
2017-Jun-23 04:00N 53°24' W 002°60'0 0.0
2017-Jun-23 03:30N 53°24' W 002°60'0 0.0
2017-Jun-23 03:00N 53°24' W 002°60'0 0.0
2017-Jun-23 02:30N 53°24' W 002°60'0 0.0
2017-Jun-23 02:00N 53°24' W 002°60'0 0.0
2017-Jun-23 01:30N 53°24' W 002°60'0 0.0
2017-Jun-23 01:00N 53°24' W 002°60'0 0.0
2017-Jun-23 00:30N 53°24' W 002°60'0 0.0
2017-Jun-23 00:00N 53°24' W 002°60'0 0.0
2017-Jun-22 23:30N 53°24' W 002°60'0 0.0
2017-Jun-22 23:00N 53°24' W 002°60'0 0.0
2017-Jun-22 22:30N 53°24' W 002°60'0 0.0
2017-Jun-22 22:00N 53°24' W 002°60'0 0.0
2017-Jun-22 21:30N 53°24' W 002°60'0 0.3
2017-Jun-22 21:00N 53°24' W 002°60'0 0.1
2017-Jun-22 20:30N 53°24' W 002°60'1 1.0
2017-Jun-22 20:00N 53°24' W 003°01'2 4.3
2017-Jun-22 19:30N 53°26' W 003°01'2 4.4
2017-Jun-22 19:00N 53°28' W 003°04'2 4.8
2017-Jun-22 18:30N 53°30' W 003°06'3 5.1
2017-Jun-22 18:00N 53°32' W 003°09'3 7.1
2017-Jun-22 17:31N 53°31' W 003°15'3 6.7
2017-Jun-22 17:00N 53°31' W 003°21'3 6.5
2017-Jun-22 16:30N 53°31' W 003°26'3 6.0
2017-Jun-22 16:00N 53°31' W 003°31'3 5.6
2017-Jun-22 15:30N 53°31' W 003°36'3 5.1
2017-Jun-22 15:00N 53°31' W 003°40'3 5.1
2017-Jun-22 14:30N 53°31' W 003°44'6 5.8
2017-Jun-22 13:29N 53°31' W 003°54'3 6.3
2017-Jun-22 13:00N 53°34' W 003°58'3 5.3
2017-Jun-22 12:30N 53°35' W 004°01'3 5.3
2017-Jun-22 11:56N 53°37' W 004°06'2 5.4
2017-Jun-22 11:30N 53°38' W 004°09'3 5.4
2017-Jun-22 10:59N 53°39' W 004°13'3 5.3
2017-Jun-22 10:28N 53°41' W 004°17'3 4.8
2017-Jun-22 09:44N 53°43' W 004°22'2 5.2
2017-Jun-22 09:23N 53°44' W 004°25'1 2.7
2017-Jun-22 09:00N 53°44' W 004°27'3 2.7
2017-Jun-22 07:57N 53°45' W 004°31'41 2.3
2017-Jun-21 13:47N 53°55' W 005°38'12 4.1
2017-Jun-21 10:48N 53°58' W 005°59'3 5.6
2017-Jun-21 10:19N 54°00' W 006°02'3 1.9
2017-Jun-21 08:58N 54°02' W 006°06'0 0.1
2017-Jun-21 08:28N 54°02' W 006°06'0 0.0
2017-Jun-21 02:09N 54°02' W 006°06'0 0.0
2017-Jun-21 01:43N 54°02' W 006°06'0 0.0
2017-Jun-21 01:13N 54°02' W 006°06'0 0.0
2017-Jun-21 01:00N 54°02' W 006°06'0 0.0
2017-Jun-20 21:29N 54°02' W 006°06'0 0.0
2017-Jun-20 21:00N 54°02' W 006°06'0 0.0
2017-Jun-20 11:34N 54°02' W 006°06'0 0.1
2017-Jun-20 08:10N 54°02' W 006°05'1 6.2
2017-Jun-20 07:59N 54°01' W 006°04'4 2.1
2017-Jun-20 06:13N 53°59' W 005°59'0 0.7
2017-Jun-20 06:01N 53°59' W 005°59'1 1.3
2017-Jun-20 05:09N 53°59' W 005°57'4 4.0
2017-Jun-20 04:03N 53°59' W 005°50'0 4.9
2017-Jun-20 04:01N 53°59' W 005°50'5 5.0
2017-Jun-20 03:00N 54°03' W 005°45'3 4.7
2017-Jun-20 02:25N 54°05' W 005°42'4 3.5
2017-Jun-20 01:10N 54°09' W 005°37'0 2.4
2017-Jun-20 01:00N 54°09' W 005°37'1 2.7
2017-Jun-20 00:30N 54°10' W 005°35'1 2.5
2017-Jun-20 00:01N 54°11' W 005°34'2 3.4
2017-Jun-19 23:31N 54°13' W 005°33'2 3.9
2017-Jun-19 23:01N 54°14' W 005°31'2 3.6
2017-Jun-19 22:31N 54°16' W 005°30'2 3.6
2017-Jun-19 22:00N 54°17' W 005°28'2 3.5
2017-Jun-19 21:31N 54°19' W 005°26'2 4.1
2017-Jun-19 21:01N 54°21' W 005°24'2 4.0
2017-Jun-19 20:31N 54°22' W 005°23'2 4.8
2017-Jun-19 20:01N 54°24' W 005°20'2 4.7
2017-Jun-19 19:31N 54°27' W 005°20'3 5.4
2017-Jun-19 19:00N 54°29' W 005°20'3 5.3
2017-Jun-19 18:30N 54°32' W 005°20'2 4.7
2017-Jun-19 18:00N 54°34' W 005°22'2 4.4
2017-Jun-19 17:31N 54°36' W 005°23'4 8.6
2017-Jun-19 17:01N 54°40' W 005°27'4 7.8
2017-Jun-19 16:31N 54°42' W 005°32'4 7.5
2017-Jun-19 16:01N 54°41' W 005°38'4 7.2
2017-Jun-19 15:31N 54°42' W 005°44'3 6.5
2017-Jun-19 15:00N 54°40' W 005°50'5 4.9
2017-Jun-19 13:58N 54°36' W 005°55'0 0.0
2017-Jun-19 13:22N 54°36' W 005°55'0 0.0
2017-Jun-19 12:49N 54°36' W 005°55'0 0.0
2017-Jun-19 12:28N 54°36' W 005°55'0 0.0
2017-Jun-19 11:55N 54°36' W 005°55'0 0.0
2017-Jun-19 11:28N 54°36' W 005°55'0 0.0
2017-Jun-19 10:52N 54°36' W 005°55'0 0.0
2017-Jun-19 10:28N 54°36' W 005°55'0 0.0
2017-Jun-19 09:58N 54°36' W 005°55'0 0.0
2017-Jun-19 09:25N 54°36' W 005°55'0 0.0
2017-Jun-19 08:58N 54°36' W 005°55'0 0.0
2017-Jun-19 08:24N 54°36' W 005°55'0 0.0
2017-Jun-19 07:58N 54°36' W 005°55'0 0.0
2017-Jun-19 07:28N 54°36' W 005°55'0 0.0
2017-Jun-19 06:58N 54°36' W 005°55'0 0.0
2017-Jun-19 06:27N 54°36' W 005°55'0 0.0
2017-Jun-19 06:00N 54°36' W 005°55'0 0.0
2017-Jun-19 05:30N 54°36' W 005°55'0 0.0
2017-Jun-19 04:53N 54°36' W 005°55'0 0.0
2017-Jun-19 04:27N 54°36' W 005°55'0 0.0
2017-Jun-19 03:58N 54°36' W 005°55'0 0.0
2017-Jun-19 03:27N 54°36' W 005°55'0 0.0
2017-Jun-19 02:59N 54°36' W 005°55'0 0.0
2017-Jun-19 02:30N 54°36' W 005°55'0 0.0
2017-Jun-19 01:55N 54°36' W 005°55'0 0.0
2017-Jun-19 01:25N 54°36' W 005°55'0 0.0
2017-Jun-19 00:57N 54°36' W 005°55'0 0.0
2017-Jun-19 00:30N 54°36' W 005°55'0 0.0
2017-Jun-18 23:42N 54°36' W 005°55'0 0.0
2017-Jun-18 23:29N 54°36' W 005°55'0 0.0
2017-Jun-18 22:59N 54°36' W 005°55'0 0.0
2017-Jun-18 22:29N 54°36' W 005°55'0 0.0
2017-Jun-18 21:58N 54°36' W 005°55'0 0.0
2017-Jun-18 21:28N 54°36' W 005°55'0 0.0
2017-Jun-18 20:59N 54°36' W 005°55'0 0.0
2017-Jun-18 20:28N 54°36' W 005°55'0 0.0
2017-Jun-18 19:54N 54°36' W 005°55'0 0.0
2017-Jun-18 19:30N 54°36' W 005°55'0 0.0
2017-Jun-18 19:00N 54°36' W 005°55'0 0.0
2017-Jun-18 18:29N 54°36' W 005°55'0 0.0
2017-Jun-18 17:55N 54°36' W 005°55'0 0.0
2017-Jun-18 17:29N 54°36' W 005°55'0 0.0
2017-Jun-18 16:56N 54°36' W 005°55'0 0.0
2017-Jun-18 16:29N 54°36' W 005°55'0 0.0
2017-Jun-18 15:56N 54°36' W 005°55'0 0.0
2017-Jun-18 15:30N 54°36' W 005°55'0 0.0
2017-Jun-18 14:48N 54°36' W 005°55'0 0.0
2017-Jun-18 13:59N 54°36' W 005°55'0 0.0
2017-Jun-18 13:25N 54°36' W 005°55'0 0.0
2017-Jun-18 13:00N 54°36' W 005°55'0 0.0
2017-Jun-18 12:29N 54°36' W 005°55'0 0.0
2017-Jun-18 12:00N 54°36' W 005°55'0 0.0
2017-Jun-18 11:27N 54°36' W 005°55'0 0.0
2017-Jun-18 11:00N 54°36' W 005°55'0 0.0
2017-Jun-18 10:27N 54°36' W 005°55'0 0.0
2017-Jun-18 09:58N 54°36' W 005°55'0 0.0
2017-Jun-18 09:28N 54°36' W 005°55'0 0.0
2017-Jun-18 08:59N 54°36' W 005°55'0 0.0
2017-Jun-18 08:25N 54°36' W 005°55'0 0.0
2017-Jun-18 08:00N 54°36' W 005°55'0 0.0
2017-Jun-18 07:25N 54°36' W 005°55'0 0.0
2017-Jun-18 06:55N 54°36' W 005°55'0 0.0
2017-Jun-18 06:29N 54°36' W 005°55'0 0.0
2017-Jun-18 06:00N 54°36' W 005°55'0 0.0
2017-Jun-18 05:27N 54°36' W 005°55'0 0.0
2017-Jun-18 04:57N 54°36' W 005°55'0 0.0
2017-Jun-18 04:29N 54°36' W 005°55'0 0.0
2017-Jun-18 03:59N 54°36' W 005°55'0 0.0
2017-Jun-18 03:27N 54°36' W 005°55'0 0.0
2017-Jun-18 02:57N 54°36' W 005°55'0 0.0
2017-Jun-18 02:31N 54°36' W 005°55'0 0.0
2017-Jun-18 01:59N 54°36' W 005°55'0 0.0
2017-Jun-18 01:28N 54°36' W 005°55'0 0.0
2017-Jun-18 00:58N 54°36' W 005°55'0 0.0
2017-Jun-18 00:27N 54°36' W 005°55'0 0.0
2017-Jun-17 23:59N 54°36' W 005°55'0 0.0
2017-Jun-17 23:27N 54°36' W 005°55'0 0.0
2017-Jun-17 22:57N 54°36' W 005°55'0 0.0
2017-Jun-17 22:29N 54°36' W 005°55'0 0.0
2017-Jun-17 21:59N 54°36' W 005°55'0 0.0
2017-Jun-17 21:28N 54°36' W 005°55'0 0.0
2017-Jun-17 20:59N 54°36' W 005°55'0 0.0
2017-Jun-17 20:30N 54°36' W 005°55'0 0.0
2017-Jun-17 20:00N 54°36' W 005°55'0 0.0
2017-Jun-17 19:27N 54°36' W 005°55'0 0.0
2017-Jun-17 18:59N 54°36' W 005°55'0 0.0
2017-Jun-17 18:28N 54°36' W 005°55'0 0.0
2017-Jun-17 17:58N 54°36' W 005°55'0 0.0
2017-Jun-17 17:29N 54°36' W 005°55'0 0.0
2017-Jun-17 16:59N 54°36' W 005°55'0 0.0
2017-Jun-17 16:29N 54°36' W 005°55'0 0.0
2017-Jun-17 15:58N 54°36' W 005°55'0 0.0
2017-Jun-17 15:26N 54°36' W 005°55'0 0.0
2017-Jun-17 14:54N 54°36' W 005°55'0 0.0
2017-Jun-17 14:29N 54°36' W 005°55'0 0.0
2017-Jun-17 13:29N 54°36' W 005°55'0 0.0
2017-Jun-17 12:57N 54°36' W 005°55'0 0.0
2017-Jun-17 12:29N 54°36' W 005°55'0 0.0
2017-Jun-17 12:00N 54°36' W 005°55'0 0.0
2017-Jun-17 11:29N 54°36' W 005°55'0 0.0
2017-Jun-17 11:00N 54°36' W 005°55'0 0.0
2017-Jun-17 10:28N 54°36' W 005°55'0 0.0
2017-Jun-17 09:56N 54°36' W 005°55'0 0.0
2017-Jun-17 09:28N 54°36' W 005°55'0 0.0
2017-Jun-17 08:56N 54°36' W 005°55'0 0.0
2017-Jun-17 08:30N 54°36' W 005°55'0 0.0
2017-Jun-17 07:59N 54°36' W 005°55'0 0.0
2017-Jun-17 07:25N 54°36' W 005°55'0 0.0
2017-Jun-17 06:59N 54°36' W 005°55'0 0.0
2017-Jun-17 06:30N 54°36' W 005°55'0 0.0
2017-Jun-17 06:00N 54°36' W 005°55'0 0.0
2017-Jun-17 05:23N 54°36' W 005°55'0 0.0
2017-Jun-17 04:59N 54°36' W 005°55'0 0.0
2017-Jun-17 04:19N 54°36' W 005°55'0 0.0
2017-Jun-17 04:00N 54°36' W 005°55'0 0.0
2017-Jun-17 03:28N 54°36' W 005°55'0 0.0
2017-Jun-17 02:59N 54°36' W 005°55'0 0.0
2017-Jun-17 02:26N 54°36' W 005°55'0 0.0
2017-Jun-17 01:43N 54°36' W 005°55'0 0.0
2017-Jun-17 01:28N 54°36' W 005°55'0 0.0
2017-Jun-17 00:55N 54°36' W 005°55'0 0.0
2017-Jun-17 00:29N 54°36' W 005°55'0 0.0
2017-Jun-16 23:56N 54°36' W 005°55'0 0.0
2017-Jun-16 23:28N 54°36' W 005°55'0 0.0
2017-Jun-16 22:59N 54°36' W 005°55'0 0.0
2017-Jun-16 22:19N 54°36' W 005°55'0 0.0
2017-Jun-16 21:52N 54°36' W 005°55'0 0.0
2017-Jun-16 21:24N 54°36' W 005°55'0 0.0
2017-Jun-16 20:59N 54°36' W 005°55'0 0.0
2017-Jun-16 20:20N 54°36' W 005°55'0 0.0
2017-Jun-16 19:54N 54°36' W 005°55'0 0.0
2017-Jun-16 19:28N 54°36' W 005°55'0 0.0
2017-Jun-16 18:50N 54°36' W 005°55'0 0.0
2017-Jun-16 18:28N 54°36' W 005°55'0 0.0
2017-Jun-16 18:00N 54°36' W 005°55'0 0.0
2017-Jun-16 17:28N 54°36' W 005°55'0 0.0
2017-Jun-16 17:00N 54°36' W 005°55'0 0.0
2017-Jun-16 16:30N 54°36' W 005°55'  
Track history (hours):
 
Tides and Currents Weather Stations Pressure Air Temp Water Temp Dewpoint Dewpoint Depression Visibility Wind Speed Wind Dir Waves Ship Positions

Pelican of London

Ship's website: http://www.adventureundersail.com/

Last reported at 2017-Jun-26 16:24 UTC. Time now 2017-Jun-29 01:50 UTC.
Position N 53°35' W 003°43'.

Length 35 m; draft 4 m.

Type: Sailing vessel. MMSI: 235057366.

Date/timePositionNaut miles runAvg speedWind from/ knotsBaromVisibWave heightAir tempDewpointWater temp
2017-Jun-26 16:24N 53°35' W 003°43'4 9.8
2017-Jun-26 16:00N 53°35' W 003°36'5 9.7
2017-Jun-26 15:30N 53°35' W 003°28'5 9.2
2017-Jun-26 15:00N 53°33' W 003°21'9 8.7
2017-Jun-26 14:00N 53°31' W 003°07'4 7.1
2017-Jun-26 13:30N 53°28' W 003°03'3 6.3
2017-Jun-26 13:00N 53°25' W 003°01'2 3.1
2017-Jun-26 12:30N 53°24' W 002°60'0 0.0
2017-Jun-26 12:00N 53°24' W 002°60'0 0.0
2017-Jun-26 11:30N 53°24' W 002°60'0 0.0
2017-Jun-26 11:00N 53°24' W 002°60'0 0.0
2017-Jun-26 10:30N 53°24' W 002°60'0 0.0
2017-Jun-26 10:00N 53°24' W 002°60'0 0.0
2017-Jun-26 09:30N 53°24' W 002°60'0 0.0
2017-Jun-26 09:00N 53°24' W 002°60'0 0.0
2017-Jun-26 08:30N 53°24' W 002°60'0 0.0
2017-Jun-26 08:00N 53°24' W 002°60'0 0.0
2017-Jun-26 07:30N 53°24' W 002°60'0 0.0
2017-Jun-26 07:00N 53°24' W 002°60'0 0.0
2017-Jun-26 06:30N 53°24' W 002°60'0 0.0
2017-Jun-26 06:00N 53°24' W 002°60'0 0.0
2017-Jun-26 05:30N 53°24' W 002°60'0 0.0
2017-Jun-26 05:00N 53°24' W 002°60'0 0.0
2017-Jun-26 04:30N 53°24' W 002°60'0 0.0
2017-Jun-26 04:00N 53°24' W 002°60'0 0.0
2017-Jun-26 03:30N 53°24' W 002°60'0 0.0
2017-Jun-26 03:00N 53°24' W 002°60'0 0.0
2017-Jun-26 02:30N 53°24' W 002°60'0 0.0
2017-Jun-26 02:00N 53°24' W 002°60'0 0.0
2017-Jun-26 01:30N 53°24' W 002°60'0 0.0
2017-Jun-26 01:00N 53°24' W 002°60'0 0.0
2017-Jun-26 00:30N 53°24' W 002°60'0 0.0
2017-Jun-26 00:00N 53°24' W 002°60'0 0.0
2017-Jun-25 23:30N 53°24' W 002°60'0 0.0
2017-Jun-25 23:00N 53°24' W 002°60'0 0.0
2017-Jun-25 22:30N 53°24' W 002°60'0 0.0
2017-Jun-25 22:00N 53°24' W 002°60'0 0.0
2017-Jun-25 21:30N 53°24' W 002°60'0 0.0
2017-Jun-25 21:00N 53°24' W 002°60'0 0.0
2017-Jun-25 20:30N 53°24' W 002°60'0 0.0
2017-Jun-25 20:00N 53°24' W 002°60'0 0.0
2017-Jun-25 19:30N 53°24' W 002°60'0 0.0
2017-Jun-25 19:00N 53°24' W 002°60'0 0.0
2017-Jun-25 18:30N 53°24' W 002°60'0 0.0
2017-Jun-25 18:00N 53°24' W 002°60'0 0.0
2017-Jun-25 17:30N 53°24' W 002°60'0 0.0
2017-Jun-25 17:00N 53°24' W 002°60'0 0.0
2017-Jun-25 16:30N 53°24' W 002°60'0 0.0
2017-Jun-25 16:00N 53°24' W 002°60'0 0.0
2017-Jun-25 15:30N 53°24' W 002°60'0 0.0
2017-Jun-25 15:00N 53°24' W 002°60'0 0.0
2017-Jun-25 14:30N 53°24' W 002°60'0 0.0
2017-Jun-25 13:30N 53°24' W 002°60'0 0.0
2017-Jun-25 13:00N 53°24' W 002°60'0 0.0
2017-Jun-25 12:30N 53°24' W 002°60'0 0.0
2017-Jun-25 12:00N 53°24' W 002°60'0 0.0
2017-Jun-25 11:30N 53°24' W 002°60'0 0.0
2017-Jun-25 11:00N 53°24' W 002°60'0 0.0
2017-Jun-25 10:30N 53°24' W 002°60'0 0.0
2017-Jun-25 10:00N 53°24' W 002°60'0 0.0
2017-Jun-25 09:30N 53°24' W 002°60'0 0.0
2017-Jun-25 09:00N 53°24' W 002°60'0 0.0
2017-Jun-25 08:30N 53°24' W 002°60'0 0.0
2017-Jun-25 08:00N 53°24' W 002°60'0 0.0
2017-Jun-25 07:30N 53°24' W 002°60'0 0.0
2017-Jun-25 07:00N 53°24' W 002°60'0 0.0
2017-Jun-25 06:30N 53°24' W 002°60'0 0.0
2017-Jun-25 06:00N 53°24' W 002°60'0 0.0
2017-Jun-25 05:30N 53°24' W 002°60'0 0.0
2017-Jun-25 05:00N 53°24' W 002°60'0 0.0
2017-Jun-25 04:30N 53°24' W 002°60'0 0.0
2017-Jun-25 04:00N 53°24' W 002°60'0 0.0
2017-Jun-25 03:30N 53°24' W 002°60'0 0.0
2017-Jun-25 03:00N 53°24' W 002°60'0 0.0
2017-Jun-25 02:30N 53°24' W 002°60'0 0.0
2017-Jun-25 02:00N 53°24' W 002°60'0 0.0
2017-Jun-25 01:30N 53°24' W 002°60'0 0.0
2017-Jun-25 01:00N 53°24' W 002°60'0 0.0
2017-Jun-25 00:30N 53°24' W 002°60'0 0.0
2017-Jun-25 00:00N 53°24' W 002°60'0 0.0
2017-Jun-24 23:30N 53°24' W 002°60'0 0.0
2017-Jun-24 23:00N 53°24' W 002°60'0 0.0
2017-Jun-24 22:30N 53°24' W 002°60'0 0.0
2017-Jun-24 22:00N 53°24' W 002°60'0 0.0
2017-Jun-24 21:30N 53°24' W 002°60'0 0.0
2017-Jun-24 21:00N 53°24' W 002°60'0 0.0
2017-Jun-24 20:30N 53°24' W 002°60'0 0.0
2017-Jun-24 20:00N 53°24' W 002°60'0 0.0
2017-Jun-24 19:30N 53°24' W 002°60'0 0.0
2017-Jun-24 19:00N 53°24' W 002°60'0 0.0
2017-Jun-24 18:30N 53°24' W 002°60'0 0.0
2017-Jun-24 18:00N 53°24' W 002°60'0 0.0
2017-Jun-24 17:30N 53°24' W 002°60'0 0.0
2017-Jun-24 17:00N 53°24' W 002°60'0 0.0
2017-Jun-24 16:30N 53°24' W 002°60'0 0.0
2017-Jun-24 16:00N 53°24' W 002°60'0 0.0
2017-Jun-24 15:30N 53°24' W 002°60'0 0.0
2017-Jun-24 15:00N 53°24' W 002°60'0 0.0
2017-Jun-24 14:00N 53°24' W 002°60'0 0.0
2017-Jun-24 13:30N 53°24' W 002°60'0 0.0
2017-Jun-24 13:00N 53°24' W 002°60'0 0.0
2017-Jun-24 12:30N 53°24' W 002°60'0 0.0
2017-Jun-24 12:00N 53°24' W 002°60'0 0.0
2017-Jun-24 11:30N 53°24' W 002°60'0 0.0
2017-Jun-24 11:00N 53°24' W 002°60'0 0.0
2017-Jun-24 10:30N 53°24' W 002°60'0 0.0
2017-Jun-24 10:00N 53°24' W 002°60'0 0.0
2017-Jun-24 09:30N 53°24' W 002°60'0 0.0
2017-Jun-24 09:00N 53°24' W 002°60'0 0.0
2017-Jun-24 08:30N 53°24' W 002°60'0 0.0
2017-Jun-24 08:00N 53°24' W 002°60'0 0.0
2017-Jun-24 07:30N 53°24' W 002°60'0 0.0
2017-Jun-24 07:00N 53°24' W 002°60'0 0.0
2017-Jun-24 06:30N 53°24' W 002°60'0 0.0
2017-Jun-24 06:00N 53°24' W 002°60'0 0.0
2017-Jun-24 05:30N 53°24' W 002°60'0 0.0
2017-Jun-24 05:00N 53°24' W 002°60'0 0.0
2017-Jun-24 04:30N 53°24' W 002°60'0 0.0
2017-Jun-24 04:00N 53°24' W 002°60'0 0.0
2017-Jun-24 03:30N 53°24' W 002°60'0 0.0
2017-Jun-24 03:00N 53°24' W 002°60'0 0.0
2017-Jun-24 02:30N 53°24' W 002°60'0 0.0
2017-Jun-24 02:00N 53°24' W 002°60'0 0.0
2017-Jun-24 01:30N 53°24' W 002°60'0 0.0
2017-Jun-24 01:00N 53°24' W 002°60'0 0.0
2017-Jun-24 00:30N 53°24' W 002°60'0 0.0
2017-Jun-24 00:00N 53°24' W 002°60'0 0.0
2017-Jun-23 23:30N 53°24' W 002°60'0 0.0
2017-Jun-23 23:00N 53°24' W 002°60'0 0.0
2017-Jun-23 22:30N 53°24' W 002°60'0 0.0
2017-Jun-23 22:00N 53°24' W 002°60'0 0.0
2017-Jun-23 21:30N 53°24' W 002°60'0 0.0
2017-Jun-23 21:00N 53°24' W 002°60'0 0.0
2017-Jun-23 20:30N 53°24' W 002°60'0 0.0
2017-Jun-23 20:00N 53°24' W 002°60'0 0.0
2017-Jun-23 19:30N 53°24' W 002°60'0 0.0
2017-Jun-23 19:00N 53°24' W 002°60'0 0.0
2017-Jun-23 18:30N 53°24' W 002°60'0 0.0
2017-Jun-23 18:00N 53°24' W 002°60'0 0.0
2017-Jun-23 17:30N 53°24' W 002°60'0 0.0
2017-Jun-23 17:00N 53°24' W 002°60'0 0.0
2017-Jun-23 16:30N 53°24' W 002°60'0 0.0
2017-Jun-23 16:00N 53°24' W 002°60'0 0.0
2017-Jun-23 15:30N 53°24' W 002°60'0 0.0
2017-Jun-23 15:00N 53°24' W 002°60'0 0.0
2017-Jun-23 14:00N 53°24' W 002°60'0 0.0
2017-Jun-23 13:30N 53°24' W 002°60'0 0.0
2017-Jun-23 13:00N 53°24' W 002°60'0 0.0
2017-Jun-23 12:30N 53°24' W 002°60'0 0.0
2017-Jun-23 12:00N 53°24' W 002°60'0 0.0
2017-Jun-23 11:30N 53°24' W 002°60'0 0.0
2017-Jun-23 11:00N 53°24' W 002°60'0 0.0
2017-Jun-23 10:30N 53°24' W 002°60'0 0.0
2017-Jun-23 10:00N 53°24' W 002°60'0 0.0
2017-Jun-23 09:30N 53°24' W 002°60'0 0.0
2017-Jun-23 09:00N 53°24' W 002°60'0 0.0
2017-Jun-23 08:30N 53°24' W 002°60'0 0.0
2017-Jun-23 08:00N 53°24' W 002°60'0 0.0
2017-Jun-23 07:30N 53°24' W 002°60'0 0.0
2017-Jun-23 07:00N 53°24' W 002°60'0 0.0
2017-Jun-23 06:30N 53°24' W 002°60'0 0.0
2017-Jun-23 06:00N 53°24' W 002°60'0 0.0
2017-Jun-23 05:30N 53°24' W 002°60'0 0.0
2017-Jun-23 05:00N 53°24' W 002°60'0 0.0
2017-Jun-23 04:30N 53°24' W 002°60'0 0.0
2017-Jun-23 04:00N 53°24' W 002°60'0 0.0
2017-Jun-23 03:30N 53°24' W 002°60'0 0.0
2017-Jun-23 03:00N 53°24' W 002°60'0 0.0
2017-Jun-23 02:30N 53°24' W 002°60'0 0.0
2017-Jun-23 02:00N 53°24' W 002°60'0 0.0
2017-Jun-23 01:30N 53°24' W 002°60'0 0.0
2017-Jun-23 01:00N 53°24' W 002°60'0 0.0
2017-Jun-23 00:30N 53°24' W 002°60'0 0.0
2017-Jun-23 00:00N 53°24' W 002°60'0 0.0
2017-Jun-22 23:30N 53°24' W 002°60'0 0.0
2017-Jun-22 23:00N 53°24' W 002°60'0 0.0
2017-Jun-22 22:30N 53°24' W 002°60'0 0.0
2017-Jun-22 22:00N 53°24' W 002°60'0 0.0
2017-Jun-22 21:30N 53°24' W 002°60'0 0.3
2017-Jun-22 21:00N 53°24' W 002°60'0 0.1
2017-Jun-22 20:30N 53°24' W 002°60'1 1.0
2017-Jun-22 20:00N 53°24' W 003°01'2 4.3
2017-Jun-22 19:30N 53°26' W 003°01'2 4.4
2017-Jun-22 19:00N 53°28' W 003°04'2 4.8
2017-Jun-22 18:30N 53°30' W 003°06'3 5.1
2017-Jun-22 18:00N 53°32' W 003°09'3 7.1
2017-Jun-22 17:31N 53°31' W 003°15'3 6.7
2017-Jun-22 17:00N 53°31' W 003°21'3 6.5
2017-Jun-22 16:30N 53°31' W 003°26'3 6.0
2017-Jun-22 16:00N 53°31' W 003°31'3 5.6
2017-Jun-22 15:30N 53°31' W 003°36'3 5.1
2017-Jun-22 15:00N 53°31' W 003°40'3 5.1
2017-Jun-22 14:30N 53°31' W 003°44'6 5.8
2017-Jun-22 13:29N 53°31' W 003°54'3 6.3
2017-Jun-22 13:00N 53°34' W 003°58'3 5.3
2017-Jun-22 12:30N 53°35' W 004°01'3 5.3
2017-Jun-22 11:56N 53°37' W 004°06'2 5.4
2017-Jun-22 11:30N 53°38' W 004°09'3 5.4
2017-Jun-22 10:59N 53°39' W 004°13'3 5.3
2017-Jun-22 10:28N 53°41' W 004°17'3 4.8
2017-Jun-22 09:44N 53°43' W 004°22'2 5.2
2017-Jun-22 09:23N 53°44' W 004°25'1 2.7
2017-Jun-22 09:00N 53°44' W 004°27'3 2.7
2017-Jun-22 07:57N 53°45' W 004°31'41 2.3
2017-Jun-21 13:47N 53°55' W 005°38'12 4.1
2017-Jun-21 10:48N 53°58' W 005°59'3 5.6
2017-Jun-21 10:19N 54°00' W 006°02'3 1.9
2017-Jun-21 08:58N 54°02' W 006°06'0 0.1
2017-Jun-21 08:28N 54°02' W 006°06'0 0.0
2017-Jun-21 02:09N 54°02' W 006°06'0 0.0
2017-Jun-21 01:43N 54°02' W 006°06'0 0.0
2017-Jun-21 01:13N 54°02' W 006°06'0 0.0
2017-Jun-21 01:00N 54°02' W 006°06'0 0.0
2017-Jun-20 21:29N 54°02' W 006°06'0 0.0
2017-Jun-20 21:00N 54°02' W 006°06'0 0.0
2017-Jun-20 11:34N 54°02' W 006°06'0 0.1
2017-Jun-20 08:10N 54°02' W 006°05'1 6.2
2017-Jun-20 07:59N 54°01' W 006°04'4 2.1
2017-Jun-20 06:13N 53°59' W 005°59'0 0.7
2017-Jun-20 06:01N 53°59' W 005°59'1 1.3
2017-Jun-20 05:09N 53°59' W 005°57'4 4.0
2017-Jun-20 04:03N 53°59' W 005°50'0 4.9
2017-Jun-20 04:01N 53°59' W 005°50'5 5.0
2017-Jun-20 03:00N 54°03' W 005°45'3 4.7
2017-Jun-20 02:25N 54°05' W 005°42'4 3.5
2017-Jun-20 01:10N 54°09' W 005°37'0 2.4
2017-Jun-20 01:00N 54°09' W 005°37'1 2.7
2017-Jun-20 00:30N 54°10' W 005°35'1 2.5
2017-Jun-20 00:01N 54°11' W 005°34'2 3.4
2017-Jun-19 23:31N 54°13' W 005°33'2 3.9
2017-Jun-19 23:01N 54°14' W 005°31'2 3.6
2017-Jun-19 22:31N 54°16' W 005°30'2 3.6
2017-Jun-19 22:00N 54°17' W 005°28'2 3.5
2017-Jun-19 21:31N 54°19' W 005°26'2 4.1
2017-Jun-19 21:01N 54°21' W 005°24'2 4.0
2017-Jun-19 20:31N 54°22' W 005°23'2 4.8
2017-Jun-19 20:01N 54°24' W 005°20'2 4.7
2017-Jun-19 19:31N 54°27' W 005°20'3 5.4
2017-Jun-19 19:00N 54°29' W 005°20'3 5.3
2017-Jun-19 18:30N 54°32' W 005°20'2 4.7
2017-Jun-19 18:00N 54°34' W 005°22'2 4.4
2017-Jun-19 17:31N 54°36' W 005°23'4 8.6
2017-Jun-19 17:01N 54°40' W 005°27'4 7.8
2017-Jun-19 16:31N 54°42' W 005°32'4 7.5
2017-Jun-19 16:01N 54°41' W 005°38'4 7.2
2017-Jun-19 15:31N 54°42' W 005°44'3 6.5
2017-Jun-19 15:00N 54°40' W 005°50'5 4.9
2017-Jun-19 13:58N 54°36' W 005°55'0 0.0
2017-Jun-19 13:22N 54°36' W 005°55'0 0.0
2017-Jun-19 12:49N 54°36' W 005°55'0 0.0
2017-Jun-19 12:28N 54°36' W 005°55'0 0.0
2017-Jun-19 11:55N 54°36' W 005°55'0 0.0
2017-Jun-19 11:28N 54°36' W 005°55'0 0.0
2017-Jun-19 10:52N 54°36' W 005°55'0 0.0
2017-Jun-19 10:28N 54°36' W 005°55'0 0.0
2017-Jun-19 09:58N 54°36' W 005°55'0 0.0
2017-Jun-19 09:25N 54°36' W 005°55'0 0.0
2017-Jun-19 08:58N 54°36' W 005°55'0 0.0
2017-Jun-19 08:24N 54°36' W 005°55'0 0.0
2017-Jun-19 07:58N 54°36' W 005°55'0 0.0
2017-Jun-19 07:28N 54°36' W 005°55'0 0.0
2017-Jun-19 06:58N 54°36' W 005°55'0 0.0
2017-Jun-19 06:27N 54°36' W 005°55'0 0.0
2017-Jun-19 06:00N 54°36' W 005°55'0 0.0
2017-Jun-19 05:30N 54°36' W 005°55'0 0.0
2017-Jun-19 04:53N 54°36' W 005°55'0 0.0
2017-Jun-19 04:27N 54°36' W 005°55'0 0.0
2017-Jun-19 03:58N 54°36' W 005°55'0 0.0
2017-Jun-19 03:27N 54°36' W 005°55'0 0.0
2017-Jun-19 02:59N 54°36' W 005°55'0 0.0
2017-Jun-19 02:30N 54°36' W 005°55'0 0.0
2017-Jun-19 01:55N 54°36' W 005°55'0 0.0
2017-Jun-19 01:25N 54°36' W 005°55'0 0.0
2017-Jun-19 00:57N 54°36' W 005°55'0 0.0
2017-Jun-19 00:30N 54°36' W 005°55'0 0.0
2017-Jun-18 23:42N 54°36' W 005°55'0 0.0
2017-Jun-18 23:29N 54°36' W 005°55'0 0.0
2017-Jun-18 22:59N 54°36' W 005°55'0 0.0
2017-Jun-18 22:29N 54°36' W 005°55'0 0.0
2017-Jun-18 21:58N 54°36' W 005°55'0 0.0
2017-Jun-18 21:28N 54°36' W 005°55'0 0.0
2017-Jun-18 20:59N 54°36' W 005°55'0 0.0
2017-Jun-18 20:28N 54°36' W 005°55'0 0.0
2017-Jun-18 19:54N 54°36' W 005°55'0 0.0
2017-Jun-18 19:30N 54°36' W 005°55'0 0.0
2017-Jun-18 19:00N 54°36' W 005°55'0 0.0
2017-Jun-18 18:29N 54°36' W 005°55'0 0.0
2017-Jun-18 17:55N 54°36' W 005°55'0 0.0
2017-Jun-18 17:29N 54°36' W 005°55'0 0.0
2017-Jun-18 16:56N 54°36' W 005°55'0 0.0
2017-Jun-18 16:29N 54°36' W 005°55'0 0.0
2017-Jun-18 15:56N 54°36' W 005°55'0 0.0
2017-Jun-18 15:30N 54°36' W 005°55'0 0.0
2017-Jun-18 14:48N 54°36' W 005°55'0 0.0
2017-Jun-18 13:59N 54°36' W 005°55'0 0.0
2017-Jun-18 13:25N 54°36' W 005°55'0 0.0
2017-Jun-18 13:00N 54°36' W 005°55'0 0.0
2017-Jun-18 12:29N 54°36' W 005°55'0 0.0
2017-Jun-18 12:00N 54°36' W 005°55'0 0.0
2017-Jun-18 11:27N 54°36' W 005°55'0 0.0
2017-Jun-18 11:00N 54°36' W 005°55'0 0.0
2017-Jun-18 10:27N 54°36' W 005°55'0 0.0
2017-Jun-18 09:58N 54°36' W 005°55'0 0.0
2017-Jun-18 09:28N 54°36' W 005°55'0 0.0
2017-Jun-18 08:59N 54°36' W 005°55'0 0.0
2017-Jun-18 08:25N 54°36' W 005°55'0 0.0
2017-Jun-18 08:00N 54°36' W 005°55'0 0.0
2017-Jun-18 07:25N 54°36' W 005°55'0 0.0
2017-Jun-18 06:55N 54°36' W 005°55'0 0.0
2017-Jun-18 06:29N 54°36' W 005°55'0 0.0
2017-Jun-18 06:00N 54°36' W 005°55'0 0.0
2017-Jun-18 05:27N 54°36' W 005°55'0 0.0
2017-Jun-18 04:57N 54°36' W 005°55'0 0.0
2017-Jun-18 04:29N 54°36' W 005°55'0 0.0
2017-Jun-18 03:59N 54°36' W 005°55'0 0.0
2017-Jun-18 03:27N 54°36' W 005°55'0 0.0
2017-Jun-18 02:57N 54°36' W 005°55'0 0.0
2017-Jun-18 02:31N 54°36' W 005°55'0 0.0
2017-Jun-18 01:59N 54°36' W 005°55'0 0.0
2017-Jun-18 01:28N 54°36' W 005°55'0 0.0
2017-Jun-18 00:58N 54°36' W 005°55'0 0.0
2017-Jun-18 00:27N 54°36' W 005°55'0 0.0
2017-Jun-17 23:59N 54°36' W 005°55'0 0.0
2017-Jun-17 23:27N 54°36' W 005°55'0 0.0
2017-Jun-17 22:57N 54°36' W 005°55'0 0.0
2017-Jun-17 22:29N 54°36' W 005°55'0 0.0
2017-Jun-17 21:59N 54°36' W 005°55'0 0.0
2017-Jun-17 21:28N 54°36' W 005°55'0 0.0
2017-Jun-17 20:59N 54°36' W 005°55'0 0.0
2017-Jun-17 20:30N 54°36' W 005°55'0 0.0
2017-Jun-17 20:00N 54°36' W 005°55'0 0.0
2017-Jun-17 19:27N 54°36' W 005°55'0 0.0
2017-Jun-17 18:59N 54°36' W 005°55'0 0.0
2017-Jun-17 18:28N 54°36' W 005°55'0 0.0
2017-Jun-17 17:58N 54°36' W 005°55'0 0.0
2017-Jun-17 17:29N 54°36' W 005°55'0 0.0
2017-Jun-17 16:59N 54°36' W 005°55'0 0.0
2017-Jun-17 16:29N 54°36' W 005°55'0 0.0
2017-Jun-17 15:58N 54°36' W 005°55'0 0.0
2017-Jun-17 15:26N 54°36' W 005°55'0 0.0
2017-Jun-17 14:54N 54°36' W 005°55'0 0.0
2017-Jun-17 14:29N 54°36' W 005°55'0 0.0
2017-Jun-17 13:29N 54°36' W 005°55'0 0.0
2017-Jun-17 12:57N 54°36' W 005°55'0 0.0
2017-Jun-17 12:29N 54°36' W 005°55'0 0.0
2017-Jun-17 12:00N 54°36' W 005°55'0 0.0
2017-Jun-17 11:29N 54°36' W 005°55'0 0.0
2017-Jun-17 11:00N 54°36' W 005°55'0 0.0
2017-Jun-17 10:28N 54°36' W 005°55'0 0.0
2017-Jun-17 09:56N 54°36' W 005°55'0 0.0
2017-Jun-17 09:28N 54°36' W 005°55'0 0.0
2017-Jun-17 08:56N 54°36' W 005°55'0 0.0
2017-Jun-17 08:30N 54°36' W 005°55'0 0.0
2017-Jun-17 07:59N 54°36' W 005°55'0 0.0
2017-Jun-17 07:25N 54°36' W 005°55'0 0.0
2017-Jun-17 06:59N 54°36' W 005°55'0 0.0
2017-Jun-17 06:30N 54°36' W 005°55'0 0.0
2017-Jun-17 06:00N 54°36' W 005°55'0 0.0
2017-Jun-17 05:23N 54°36' W 005°55'0 0.0
2017-Jun-17 04:59N 54°36' W 005°55'0 0.0
2017-Jun-17 04:19N 54°36' W 005°55'0 0.0
2017-Jun-17 04:00N 54°36' W 005°55'0 0.0
2017-Jun-17 03:28N 54°36' W 005°55'0 0.0
2017-Jun-17 02:59N 54°36' W 005°55'0 0.0
2017-Jun-17 02:26N 54°36' W 005°55'0 0.0
2017-Jun-17 01:43N 54°36' W 005°55'0 0.0
2017-Jun-17 01:28N 54°36' W 005°55'0 0.0
2017-Jun-17 00:55N 54°36' W 005°55'0 0.0
2017-Jun-17 00:29N 54°36' W 005°55'0 0.0
2017-Jun-16 23:56N 54°36' W 005°55'0 0.0
2017-Jun-16 23:28N 54°36' W 005°55'0 0.0
2017-Jun-16 22:59N 54°36' W 005°55'0 0.0
2017-Jun-16 22:19N 54°36' W 005°55'0 0.0
2017-Jun-16 21:52N 54°36' W 005°55'0 0.0
2017-Jun-16 21:24N 54°36' W 005°55'0 0.0
2017-Jun-16 20:59N 54°36' W 005°55'0 0.0
2017-Jun-16 20:20N 54°36' W 005°55'0 0.0
2017-Jun-16 19:54N 54°36' W 005°55'0 0.0
2017-Jun-16 19:28N 54°36' W 005°55'0 0.0
2017-Jun-16 18:50N 54°36' W 005°55'0 0.0
2017-Jun-16 18:28N 54°36' W 005°55'0 0.0
2017-Jun-16 18:00N 54°36' W 005°55'0 0.0
2017-Jun-16 17:28N 54°36' W 005°55'0 0.0
2017-Jun-16 17:00N 54°36' W 005°55'0 0.0
2017-Jun-16 16:30N 54°36' W 005°55'  

Dump ship's entire track history